Time;durP1;ratioP1;P1;durP2;ratioP2;P2;SDS_P1;SDS_P2;PMS_P1;PMS_P2;Temp;Humidity;BMP_temperature;BMP_pressure;BME280_temperature;BME280_humidity;BME280_pressure;Samples;Min_cycle;Max_cycle;Signal;HPM_P1;HPM_P2
2020/12/29 00:01:00;;;;;;;12.47;11.27;;;;;;;;;;2089731;28;20257;-58
2020/12/29 00:02:00;;;;;;;13.20;11.87;;;;;;;;;;2089797;28;20258;-59
2020/12/29 00:03:01;;;;;;;12.13;10.93;;;;;;;;;;2089581;28;20582;-60
2020/12/29 00:04:14;;;;;;;11.40;10.40;;;;;;;;;;2089580;28;20191;-62
2020/12/29 00:05:14;;;;;;;13.17;11.97;;;;;;;;;;2087768;28;20180;-59
2020/12/29 00:06:14;;;;;;;11.87;10.67;;;;;;;;;;2089615;28;20202;-59
2020/12/29 00:07:14;;;;;;;11.87;10.77;;;;;;;;;;2089253;28;20190;-59
2020/12/29 00:08:15;;;;;;;12.33;11.23;;;;;;;;;;2080724;28;20267;-58
2020/12/29 00:09:16;;;;;;;15.83;13.47;;;;;;;;;;2080887;28;20260;-58
2020/12/29 00:10:16;;;;;;;12.30;11.17;;;;;;;;;;2089618;28;20258;-59
2020/12/29 00:11:16;;;;;;;12.90;11.60;;;;;;;;;;2089534;28;20190;-57
2020/12/29 00:12:16;;;;;;;15.10;12.67;;;;;;;;;;2088574;28;20233;-61
2020/12/29 00:13:17;;;;;;;14.23;12.73;;;;;;;;;;2089011;28;20275;-61
2020/12/29 00:14:17;;;;;;;13.90;12.47;;;;;;;;;;2089418;28;20630;-57
2020/12/29 00:15:18;;;;;;;15.27;12.27;;;;;;;;;;2089734;28;20258;-59
2020/12/29 00:16:18;;;;;;;13.00;11.63;;;;;;;;;;2089369;28;20255;-56
2020/12/29 00:17:18;;;;;;;13.00;11.67;;;;;;;;;;2089204;28;20163;-57
2020/12/29 00:18:19;;;;;;;11.30;10.30;;;;;;;;;;2089121;28;20274;-58
2020/12/29 00:19:20;;;;;;;11.33;10.23;;;;;;;;;;2089760;28;20250;-58
2020/12/29 00:20:20;;;;;;;11.93;10.80;;;;;;;;;;2080343;28;20171;-57
2020/12/29 00:21:21;;;;;;;16.07;14.53;;;;;;;;;;2080719;28;20656;-59
2020/12/29 00:22:21;;;;;;;12.47;11.07;;;;;;;;;;2088843;28;20250;-59
2020/12/29 00:23:21;;;;;;;11.93;10.83;;;;;;;;;;2089572;28;20274;-57
2020/12/29 00:24:22;;;;;;;12.70;11.40;;;;;;;;;;2089535;28;20282;-58
2020/12/29 00:25:22;;;;;;;11.23;10.23;;;;;;;;;;2089575;28;20659;-57
2020/12/29 00:26:25;;;;;;;10.93;9.93;;;;;;;;;;2088974;28;20215;-61
2020/12/29 00:27:25;;;;;;;12.30;11.07;;;;;;;;;;2077370;28;20191;-59
2020/12/29 00:28:25;;;;;;;11.23;10.17;;;;;;;;;;2080774;28;20247;-57
2020/12/29 00:29:25;;;;;;;13.57;12.27;;;;;;;;;;2089406;28;20420;-58
2020/12/29 00:30:26;;;;;;;14.10;11.57;;;;;;;;;;2089557;28;20176;-54
2020/12/29 00:31:26;;;;;;;11.77;10.67;;;;;;;;;;2088294;28;20217;-61
2020/12/29 00:32:26;;;;;;;11.37;10.07;;;;;;;;;;2089394;28;20195;-57
2020/12/29 00:33:26;;;;;;;11.10;10.00;;;;;;;;;;2088761;28;20179;-56
2020/12/29 00:34:26;;;;;;;10.93;9.93;;;;;;;;;;2088989;28;20190;-58
2020/12/29 00:35:27;;;;;;;10.63;9.53;;;;;;;;;;2090844;28;20199;-53
2020/12/29 00:36:27;;;;;;;10.60;9.63;;;;;;;;;;2091068;28;20236;-59
2020/12/29 00:37:27;;;;;;;11.20;10.10;;;;;;;;;;2090929;28;20374;-54
2020/12/29 00:38:27;;;;;;;11.60;10.07;;;;;;;;;;2090927;28;20275;-55
2020/12/29 00:39:28;;;;;;;11.33;10.23;;;;;;;;;;2088264;28;20180;-52
2020/12/29 00:40:28;;;;;;;13.60;12.07;;;;;;;;;;2090921;28;20209;-59
2020/12/29 00:41:28;;;;;;;12.37;11.17;;;;;;;;;;2090945;28;20250;-58
2020/12/29 00:42:31;;;;;;;11.77;10.67;;;;;;;;;;2090813;28;20310;-58
2020/12/29 00:43:31;;;;;;;13.50;12.10;;;;;;;;;;2082005;28;20183;-57
2020/12/29 00:44:32;;;;;;;12.53;11.33;;;;;;;;;;2082269;28;20857;-58
2020/12/29 00:45:32;;;;;;;13.87;12.47;;;;;;;;;;2090782;28;20175;-59
2020/12/29 00:46:32;;;;;;;14.13;12.63;;;;;;;;;;2081840;28;20247;-57
2020/12/29 00:47:33;;;;;;;13.57;12.27;;;;;;;;;;2081485;28;20248;-60
2020/12/29 00:48:33;;;;;;;14.10;12.60;;;;;;;;;;2090957;28;20167;-59
2020/12/29 00:49:38;;;;;;;12.10;10.97;;;;;;;;;;2090733;28;20156;-58
2020/12/29 00:50:39;;;;;;;11.50;10.43;;;;;;;;;;2082230;28;20152;-58
2020/12/29 00:51:39;;;;;;;10.63;9.63;;;;;;;;;;2082078;28;20183;-55
2020/12/29 00:52:40;;;;;;;13.67;12.37;;;;;;;;;;2090627;28;20171;-55
2020/12/29 00:53:54;;;;;;;19.37;17.30;;;;;;;;;;2079863;28;20156;-55
2020/12/29 00:54:54;;;;;;;13.40;12.00;;;;;;;;;;2073820;28;20176;-58
2020/12/29 00:56:07;;;;;;;10.77;9.73;;;;;;;;;;2083056;28;20621;-55
2020/12/29 00:57:07;;;;;;;12.50;11.37;;;;;;;;;;2089645;28;20171;-55
2020/12/29 00:58:08;;;;;;;11.77;10.67;;;;;;;;;;2089853;28;20207;-58
2020/12/29 00:59:09;;;;;;;12.97;11.63;;;;;;;;;;2081902;28;20199;-58
2020/12/29 01:00:11;;;;;;;10.83;9.87;;;;;;;;;;2081678;28;20179;-59
2020/12/29 01:01:30;;;;;;;11.33;10.33;;;;;;;;;;2073520;28;20160;-57
2020/12/29 01:02:49;;;;;;;11.80;10.70;;;;;;;;;;2070545;28;20180;-58
2020/12/29 01:03:52;;;;;;;11.27;10.23;;;;;;;;;;2071213;28;20168;-51
2020/12/29 01:04:53;;;;;;;10.40;9.50;;;;;;;;;;2065892;28;20185;-57
2020/12/29 01:05:53;;;;;;;10.60;9.60;;;;;;;;;;2081715;28;20180;-53
2020/12/29 01:06:54;;;;;;;11.07;10.07;;;;;;;;;;2081606;28;20267;-53
2020/12/29 01:07:57;;;;;;;10.70;9.73;;;;;;;;;;2081214;28;20177;-59
2020/12/29 01:08:57;;;;;;;11.00;9.97;;;;;;;;;;2073710;28;20169;-57
2020/12/29 01:09:58;;;;;;;11.03;10.07;;;;;;;;;;2073814;28;20198;-57
2020/12/29 01:10:59;;;;;;;11.03;9.87;;;;;;;;;;2073812;28;20168;-57
2020/12/29 01:12:08;;;;;;;10.77;9.70;;;;;;;;;;2079072;28;20176;-58
2020/12/29 01:13:09;;;;;;;11.30;10.17;;;;;;;;;;2081762;28;20287;-53
2020/12/29 01:14:13;;;;;;;11.53;10.53;;;;;;;;;;2079176;28;20741;-55
2020/12/29 01:15:29;;;;;;;10.20;9.30;;;;;;;;;;2073557;28;20177;-52
2020/12/29 01:16:37;;;;;;;10.13;9.17;;;;;;;;;;2072578;28;20645;-57
2020/12/29 01:17:37;;;;;;;10.40;9.40;;;;;;;;;;2072617;28;20230;-55
2020/12/29 01:18:38;;;;;;;11.70;10.60;;;;;;;;;;2081184;28;20253;-58
2020/12/29 01:19:39;;;;;;;11.47;10.37;;;;;;;;;;2090607;28;20786;-59
2020/12/29 01:20:39;;;;;;;10.03;9.00;;;;;;;;;;2090042;28;20178;-56
2020/12/29 01:21:40;;;;;;;10.23;9.33;;;;;;;;;;2073477;28;20652;-50
2020/12/29 01:22:40;;;;;;;9.93;9.03;;;;;;;;;;2073222;28;20169;-54
2020/12/29 01:23:40;;;;;;;9.90;9.10;;;;;;;;;;2090318;28;20176;-56
2020/12/29 01:24:41;;;;;;;9.70;8.90;;;;;;;;;;2090489;28;20175;-50
2020/12/29 01:25:42;;;;;;;9.73;8.93;;;;;;;;;;2090572;28;20168;-56
2020/12/29 01:26:42;;;;;;;10.33;9.37;;;;;;;;;;2081423;28;20236;-58
2020/12/29 01:27:42;;;;;;;9.53;8.57;;;;;;;;;;2073197;28;20188;-60
2020/12/29 01:28:42;;;;;;;9.57;8.67;;;;;;;;;;2081462;28;20180;-55
2020/12/29 01:29:43;;;;;;;10.07;9.07;;;;;;;;;;2090319;28;20219;-56
2020/12/29 01:30:43;;;;;;;10.17;9.20;;;;;;;;;;2090396;28;20179;-59
2020/12/29 01:31:43;;;;;;;9.43;8.53;;;;;;;;;;2090621;28;20183;-59
2020/12/29 01:32:43;;;;;;;9.40;8.60;;;;;;;;;;2090451;28;20163;-55
2020/12/29 01:33:44;;;;;;;9.53;8.53;;;;;;;;;;2090460;28;20243;-59
2020/12/29 01:34:44;;;;;;;8.80;8.00;;;;;;;;;;2081434;28;20185;-56
2020/12/29 01:35:44;;;;;;;9.10;8.30;;;;;;;;;;2081663;28;20201;-58
2020/12/29 01:36:44;;;;;;;10.13;9.27;;;;;;;;;;2081268;28;20637;-56
2020/12/29 01:37:45;;;;;;;9.13;8.40;;;;;;;;;;2081173;28;20177;-57
2020/12/29 01:38:45;;;;;;;9.43;8.50;;;;;;;;;;2090416;28;20350;-57
2020/12/29 01:39:46;;;;;;;9.47;8.67;;;;;;;;;;2090217;28;20172;-55
2020/12/29 01:40:47;;;;;;;8.73;7.93;;;;;;;;;;2090159;28;20175;-57
2020/12/29 01:41:47;;;;;;;8.43;7.83;;;;;;;;;;2089924;28;20569;-59
2020/12/29 01:42:47;;;;;;;9.00;8.20;;;;;;;;;;2090426;28;20175;-55
2020/12/29 01:43:48;;;;;;;8.97;8.17;;;;;;;;;;2090271;28;20196;-56
2020/12/29 01:44:48;;;;;;;9.60;8.70;;;;;;;;;;2090408;28;20172;-58
2020/12/29 01:45:49;;;;;;;9.73;8.73;;;;;;;;;;2087399;28;20183;-57
2020/12/29 01:46:50;;;;;;;8.60;7.90;;;;;;;;;;2090227;28;20191;-58
2020/12/29 01:47:50;;;;;;;8.57;7.87;;;;;;;;;;2089829;28;20172;-59
2020/12/29 01:48:51;;;;;;;8.20;7.50;;;;;;;;;;2090108;28;20263;-56
2020/12/29 01:49:52;;;;;;;9.20;8.40;;;;;;;;;;2090383;28;20176;-56
2020/12/29 01:50:52;;;;;;;8.63;7.93;;;;;;;;;;2081515;28;20624;-54
2020/12/29 01:51:53;;;;;;;9.50;8.50;;;;;;;;;;2081518;28;20203;-55
2020/12/29 01:52:57;;;;;;;8.37;7.57;;;;;;;;;;2090431;28;20575;-58
2020/12/29 01:53:58;;;;;;;8.20;7.57;;;;;;;;;;2081284;28;20207;-53
2020/12/29 01:54:58;;;;;;;9.13;8.30;;;;;;;;;;2081679;28;20699;-56
2020/12/29 01:55:58;;;;;;;8.80;8.00;;;;;;;;;;2090331;28;20167;-53
2020/12/29 01:56:58;;;;;;;8.87;8.03;;;;;;;;;;2089848;28;20186;-53
2020/12/29 01:57:59;;;;;;;8.57;7.87;;;;;;;;;;2089769;28;20187;-55
2020/12/29 01:58:59;;;;;;;9.33;8.43;;;;;;;;;;2090499;28;20178;-55
2020/12/29 02:00:01;;;;;;;8.57;7.87;;;;;;;;;;2081259;28;20191;-57
2020/12/29 02:01:01;;;;;;;9.20;8.27;;;;;;;;;;2073482;28;20169;-57
2020/12/29 02:02:01;;;;;;;9.17;8.37;;;;;;;;;;2081562;28;20179;-59
2020/12/29 02:03:02;;;;;;;9.47;8.67;;;;;;;;;;2091451;28;20187;-60
2020/12/29 02:04:02;;;;;;;8.73;7.93;;;;;;;;;;2081883;28;20189;-54
2020/12/29 02:05:04;;;;;;;8.97;8.17;;;;;;;;;;2081469;28;20176;-58
2020/12/29 02:06:04;;;;;;;8.67;7.80;;;;;;;;;;2090275;28;20539;-57
2020/12/29 02:07:04;;;;;;;10.57;9.57;;;;;;;;;;2090077;28;20217;-56
2020/12/29 02:08:05;;;;;;;10.73;9.77;;;;;;;;;;2090108;28;20179;-60
2020/12/29 02:09:06;;;;;;;10.83;9.80;;;;;;;;;;2089996;28;20590;-58
2020/12/29 02:10:06;;;;;;;11.60;10.27;;;;;;;;;;2090159;28;20175;-59
2020/12/29 02:11:09;;;;;;;9.47;8.57;;;;;;;;;;2081385;28;20222;-57
2020/12/29 02:12:25;;;;;;;14.40;12.93;;;;;;;;;;2081574;28;20196;-60
2020/12/29 02:13:25;;;;;;;13.87;12.47;;;;;;;;;;2090298;28;20187;-55
2020/12/29 02:14:25;;;;;;;10.63;9.63;;;;;;;;;;2089688;28;20635;-54
2020/12/29 02:15:25;;;;;;;10.17;9.17;;;;;;;;;;2089995;28;20826;-58
2020/12/29 02:16:26;;;;;;;13.23;11.93;;;;;;;;;;2080797;28;20196;-59
2020/12/29 02:17:26;;;;;;;10.67;9.67;;;;;;;;;;2080957;28;20184;-58
2020/12/29 02:18:26;;;;;;;9.03;8.27;;;;;;;;;;2090088;28;20175;-57
2020/12/29 02:19:27;;;;;;;10.07;9.17;;;;;;;;;;2081141;28;20172;-58
2020/12/29 02:20:27;;;;;;;10.03;9.20;;;;;;;;;;2081270;28;20680;-60
2020/12/29 02:21:30;;;;;;;8.97;8.17;;;;;;;;;;2090054;28;20534;-57
2020/12/29 02:22:30;;;;;;;10.13;8.47;;;;;;;;;;2087573;28;20172;-58
2020/12/29 02:23:31;;;;;;;8.83;8.07;;;;;;;;;;2089883;28;20644;-59
2020/12/29 02:24:31;;;;;;;8.97;8.27;;;;;;;;;;2090276;28;20187;-59
2020/12/29 02:25:31;;;;;;;9.07;8.23;;;;;;;;;;2089993;28;20675;-55
2020/12/29 02:26:32;;;;;;;8.67;7.90;;;;;;;;;;2081152;28;20172;-59
2020/12/29 02:27:42;;;;;;;8.57;7.87;;;;;;;;;;2080675;28;20238;-57
2020/12/29 02:28:42;;;;;;;9.80;8.97;;;;;;;;;;2090181;28;20250;-59
2020/12/29 02:29:42;;;;;;;8.77;7.97;;;;;;;;;;2090078;28;20191;-59
2020/12/29 02:30:42;;;;;;;7.83;7.23;;;;;;;;;;2090028;28;20195;-56
2020/12/29 02:31:43;;;;;;;8.50;7.80;;;;;;;;;;2089675;28;20182;-56
2020/12/29 02:32:43;;;;;;;8.57;7.63;;;;;;;;;;2072812;28;20200;-56
2020/12/29 02:33:43;;;;;;;8.27;7.47;;;;;;;;;;2072799;28;20181;-59
2020/12/29 02:34:43;;;;;;;7.83;7.23;;;;;;;;;;2081201;28;20199;-59
2020/12/29 02:35:44;;;;;;;9.87;8.80;;;;;;;;;;2081050;28;20204;-58
2020/12/29 02:36:44;;;;;;;8.93;8.13;;;;;;;;;;2089642;28;20176;-59
2020/12/29 02:37:44;;;;;;;9.00;8.30;;;;;;;;;;2080633;28;20167;-58
2020/12/29 02:38:44;;;;;;;9.30;8.40;;;;;;;;;;2072903;28;20205;-55
2020/12/29 02:39:49;;;;;;;8.27;7.57;;;;;;;;;;2080731;28;20184;-59
2020/12/29 02:40:49;;;;;;;9.90;7.40;;;;;;;;;;2087329;28;20172;-57
2020/12/29 02:41:50;;;;;;;9.23;8.40;;;;;;;;;;2089720;28;20199;-60
2020/12/29 02:42:50;;;;;;;9.17;8.27;;;;;;;;;;2089974;28;20636;-58
2020/12/29 02:43:50;;;;;;;9.07;8.17;;;;;;;;;;2089803;28;20184;-58
2020/12/29 02:44:51;;;;;;;8.53;7.83;;;;;;;;;;2089817;28;20647;-58
2020/12/29 02:45:51;;;;;;;9.10;8.30;;;;;;;;;;2089781;28;20222;-56
2020/12/29 02:46:51;;;;;;;9.20;8.30;;;;;;;;;;2089811;28;20254;-57
2020/12/29 02:47:51;;;;;;;8.77;8.00;;;;;;;;;;2080028;28;20841;-56
2020/12/29 02:48:52;;;;;;;8.43;7.73;;;;;;;;;;2080873;28;20567;-54
2020/12/29 02:49:52;;;;;;;8.23;7.53;;;;;;;;;;2089854;28;20179;-58
2020/12/29 02:50:52;;;;;;;10.13;8.77;;;;;;;;;;2080969;28;20217;-59
2020/12/29 02:51:56;;;;;;;8.63;7.90;;;;;;;;;;2081047;28;20191;-55
2020/12/29 02:52:56;;;;;;;9.57;8.53;;;;;;;;;;2089640;28;20218;-60
2020/12/29 02:53:57;;;;;;;9.77;8.87;;;;;;;;;;2090138;28;20191;-59
2020/12/29 02:54:57;;;;;;;9.27;8.47;;;;;;;;;;2090162;28;20628;-60
2020/12/29 02:55:57;;;;;;;9.57;8.13;;;;;;;;;;2090066;28;20226;-60
2020/12/29 02:56:58;;;;;;;9.30;8.50;;;;;;;;;;2089156;28;20659;-61
2020/12/29 02:57:58;;;;;;;9.53;8.53;;;;;;;;;;2088804;28;20186;-57
2020/12/29 02:58:58;;;;;;;8.67;7.97;;;;;;;;;;2090043;28;20538;-59
2020/12/29 02:59:58;;;;;;;9.03;8.13;;;;;;;;;;2090103;28;20711;-58
2020/12/29 03:00:58;;;;;;;9.23;8.33;;;;;;;;;;2089688;28;20259;-59
2020/12/29 03:01:59;;;;;;;9.20;8.33;;;;;;;;;;2089655;28;20171;-55
2020/12/29 03:02:59;;;;;;;9.50;8.70;;;;;;;;;;2089479;28;20187;-59
2020/12/29 03:03:59;;;;;;;8.20;7.50;;;;;;;;;;2089754;28;20234;-58
2020/12/29 03:05:02;;;;;;;8.30;7.50;;;;;;;;;;2089656;28;20256;-58
2020/12/29 03:06:02;;;;;;;8.07;7.37;;;;;;;;;;2089733;28;20171;-58
2020/12/29 03:07:02;;;;;;;8.37;7.70;;;;;;;;;;2089352;28;20187;-54
2020/12/29 03:08:02;;;;;;;8.00;7.40;;;;;;;;;;2089780;28;20183;-56
2020/12/29 03:09:03;;;;;;;8.00;7.20;;;;;;;;;;2089479;28;20770;-59
2020/12/29 03:10:07;;;;;;;7.73;7.00;;;;;;;;;;2089810;28;20243;-58
2020/12/29 03:11:07;;;;;;;7.30;6.63;;;;;;;;;;2089681;28;20214;-56
2020/12/29 03:12:08;;;;;;;8.27;7.57;;;;;;;;;;2089761;28;20619;-59
2020/12/29 03:13:08;;;;;;;7.17;6.57;;;;;;;;;;2089634;28;20282;-58
2020/12/29 03:14:08;;;;;;;7.10;6.50;;;;;;;;;;2089833;28;20286;-58
2020/12/29 03:15:08;;;;;;;7.77;7.17;;;;;;;;;;2089798;28;20186;-57
2020/12/29 03:16:09;;;;;;;6.97;6.47;;;;;;;;;;2090010;28;20230;-59
2020/12/29 03:17:09;;;;;;;7.00;6.50;;;;;;;;;;2080333;28;20172;-60
2020/12/29 03:18:09;;;;;;;7.23;6.70;;;;;;;;;;2080750;28;20176;-58
2020/12/29 03:19:09;;;;;;;7.43;6.83;;;;;;;;;;2080759;28;20707;-56
2020/12/29 03:20:10;;;;;;;6.97;6.40;;;;;;;;;;2080894;28;20180;-58
2020/12/29 03:21:10;;;;;;;7.97;7.27;;;;;;;;;;2089366;28;20653;-57
2020/12/29 03:22:10;;;;;;;7.20;6.60;;;;;;;;;;2089576;28;20172;-60
2020/12/29 03:23:10;;;;;;;6.60;6.00;;;;;;;;;;2089563;28;20636;-59
2020/12/29 03:24:12;;;;;;;6.87;6.27;;;;;;;;;;2089743;28;20585;-58
2020/12/29 03:25:12;;;;;;;6.67;6.17;;;;;;;;;;2080755;28;20190;-57
2020/12/29 03:26:13;;;;;;;6.87;6.33;;;;;;;;;;2080846;28;20722;-56
2020/12/29 03:27:13;;;;;;;7.63;6.97;;;;;;;;;;2089009;28;20190;-57
2020/12/29 03:28:13;;;;;;;6.80;6.27;;;;;;;;;;2089533;28;20183;-58
2020/12/29 03:29:13;;;;;;;7.20;6.60;;;;;;;;;;2080794;28;20585;-58
2020/12/29 03:30:13;;;;;;;6.93;6.33;;;;;;;;;;2080670;28;20671;-59
2020/12/29 03:31:14;;;;;;;6.60;6.10;;;;;;;;;;2089262;28;20181;-57
2020/12/29 03:32:15;;;;;;;6.60;6.00;;;;;;;;;;2081014;28;20639;-59
2020/12/29 03:33:15;;;;;;;5.77;5.37;;;;;;;;;;2080731;28;20254;-59
2020/12/29 03:34:22;;;;;;;7.20;6.60;;;;;;;;;;2081189;28;20220;-61
2020/12/29 03:35:22;;;;;;;6.73;6.10;;;;;;;;;;2079212;28;20904;-57
2020/12/29 03:36:23;;;;;;;6.67;6.17;;;;;;;;;;2089583;28;20225;-59
2020/12/29 03:37:23;;;;;;;6.90;5.90;;;;;;;;;;2089184;28;20190;-57
2020/12/29 03:38:23;;;;;;;6.50;6.00;;;;;;;;;;2080564;28;20652;-57
2020/12/29 03:39:24;;;;;;;6.57;6.07;;;;;;;;;;2080886;28;20656;-57
2020/12/29 03:40:24;;;;;;;6.20;5.80;;;;;;;;;;2089501;28;20171;-62
2020/12/29 03:41:24;;;;;;;6.40;5.93;;;;;;;;;;2089429;28;20170;-60
2020/12/29 03:42:24;;;;;;;7.17;6.57;;;;;;;;;;2080676;28;20723;-56
2020/12/29 03:43:25;;;;;;;6.80;6.30;;;;;;;;;;2080848;28;20180;-59
2020/12/29 03:44:25;;;;;;;6.37;5.90;;;;;;;;;;2080496;28;20190;-56
2020/12/29 03:45:25;;;;;;;6.07;5.67;;;;;;;;;;2080765;28;20176;-60
2020/12/29 03:46:25;;;;;;;5.97;5.47;;;;;;;;;;2089587;28;20180;-56
2020/12/29 03:47:25;;;;;;;6.53;6.03;;;;;;;;;;2092358;28;20190;-61
2020/12/29 03:48:26;;;;;;;5.97;5.47;;;;;;;;;;2097994;28;20184;-62
2020/12/29 03:49:26;;;;;;;6.40;5.90;;;;;;;;;;2098540;28;20175;-62
2020/12/29 03:50:26;;;;;;;6.67;6.17;;;;;;;;;;2097281;28;20175;-59
2020/12/29 03:51:26;;;;;;;6.67;6.10;;;;;;;;;;2096775;28;20262;-54
2020/12/29 03:52:27;;;;;;;5.80;5.30;;;;;;;;;;2089618;28;20670;-58
2020/12/29 03:53:27;;;;;;;6.17;5.67;;;;;;;;;;2089969;28;20188;-58
2020/12/29 03:54:27;;;;;;;6.13;5.63;;;;;;;;;;2089388;28;20204;-55
2020/12/29 03:55:27;;;;;;;5.37;4.97;;;;;;;;;;2089790;28;20262;-56
2020/12/29 03:56:28;;;;;;;6.00;5.53;;;;;;;;;;2089299;28;20195;-56
2020/12/29 03:57:28;;;;;;;5.90;5.40;;;;;;;;;;2089057;28;20180;-59
2020/12/29 03:58:28;;;;;;;6.00;5.40;;;;;;;;;;2089523;28;20167;-58
2020/12/29 03:59:28;;;;;;;6.17;5.67;;;;;;;;;;2080590;28;20247;-57
2020/12/29 04:00:29;;;;;;;6.23;5.83;;;;;;;;;;2072608;28;20268;-56
2020/12/29 04:01:29;;;;;;;5.60;5.20;;;;;;;;;;2080559;28;20238;-56
2020/12/29 04:02:29;;;;;;;5.67;5.27;;;;;;;;;;2089352;28;20175;-58
2020/12/29 04:03:29;;;;;;;5.70;5.03;;;;;;;;;;2089509;28;20167;-59
2020/12/29 04:04:29;;;;;;;5.70;5.30;;;;;;;;;;2080710;28;20683;-59
2020/12/29 04:05:30;;;;;;;6.37;5.67;;;;;;;;;;2080688;28;20554;-58
2020/12/29 04:06:30;;;;;;;5.87;5.43;;;;;;;;;;2089402;28;20202;-58
2020/12/29 04:07:30;;;;;;;6.20;5.73;;;;;;;;;;2088933;28;20281;-59
2020/12/29 04:08:30;;;;;;;6.03;5.50;;;;;;;;;;2089937;28;20191;-56
2020/12/29 04:09:31;;;;;;;6.13;5.67;;;;;;;;;;2081725;28;20184;-57
2020/12/29 04:10:31;;;;;;;6.53;6.03;;;;;;;;;;2082477;28;20184;-57
2020/12/29 04:11:31;;;;;;;6.03;5.57;;;;;;;;;;2090724;28;20186;-60
2020/12/29 04:12:32;;;;;;;5.80;5.40;;;;;;;;;;2091242;28;20598;-59
2020/12/29 04:13:33;;;;;;;5.87;5.47;;;;;;;;;;2088177;28;20652;-58
2020/12/29 04:14:33;;;;;;;6.30;5.70;;;;;;;;;;2105972;23;20716;-54
2020/12/29 04:15:33;;;;;;;5.30;5.00;;;;;;;;;;2073265;28;20181;-57
2020/12/29 04:16:33;;;;;;;5.93;5.43;;;;;;;;;;2066393;28;20188;-57
2020/12/29 04:17:37;;;;;;;5.40;5.00;;;;;;;;;;2064185;28;20169;-55
2020/12/29 04:18:38;;;;;;;5.20;4.80;;;;;;;;;;2074670;28;20169;-58
2020/12/29 04:19:38;;;;;;;5.63;5.23;;;;;;;;;;2072915;28;20597;-59
2020/12/29 04:20:38;;;;;;;5.63;5.13;;;;;;;;;;2065358;28;20182;-58
2020/12/29 04:21:39;;;;;;;5.47;5.07;;;;;;;;;;2073993;28;20207;-58
2020/12/29 04:22:40;;;;;;;5.40;5.00;;;;;;;;;;2065751;28;20173;-59
2020/12/29 04:23:41;;;;;;;5.30;4.90;;;;;;;;;;2065748;28;20197;-58
2020/12/29 04:24:41;;;;;;;5.87;5.27;;;;;;;;;;2070573;28;20192;-59
2020/12/29 04:25:41;;;;;;;5.50;5.00;;;;;;;;;;2082004;28;20175;-59
2020/12/29 04:26:43;;;;;;;5.43;4.93;;;;;;;;;;2088804;28;20636;-59
2020/12/29 04:27:43;;;;;;;5.20;4.80;;;;;;;;;;2089495;28;20320;-57
2020/12/29 04:28:43;;;;;;;5.47;5.07;;;;;;;;;;2091483;28;20533;-57
2020/12/29 04:29:44;;;;;;;5.40;4.93;;;;;;;;;;2082312;28;20199;-59
2020/12/29 04:30:44;;;;;;;4.17;3.97;;;;;;;;;;2082094;28;20188;-58
2020/12/29 04:31:46;;;;;;;5.60;5.10;;;;;;;;;;2089674;28;20194;-59
2020/12/29 04:32:47;;;;;;;5.10;4.80;;;;;;;;;;2090080;28;20202;-58
2020/12/29 04:33:47;;;;;;;5.50;5.00;;;;;;;;;;2073233;28;20720;-57
2020/12/29 04:34:47;;;;;;;5.50;5.10;;;;;;;;;;2073969;28;20262;-58
2020/12/29 04:35:47;;;;;;;4.83;4.53;;;;;;;;;;2090660;28;20179;-58
2020/12/29 04:36:51;;;;;;;4.83;4.53;;;;;;;;;;2082076;28;20215;-58
2020/12/29 04:37:52;;;;;;;5.40;5.00;;;;;;;;;;2073517;28;20665;-58
2020/12/29 04:38:52;;;;;;;5.33;4.93;;;;;;;;;;2074270;28;20169;-58
2020/12/29 04:39:52;;;;;;;5.17;4.77;;;;;;;;;;2079550;28;20904;-58
2020/12/29 04:40:53;;;;;;;5.80;5.30;;;;;;;;;;2090952;28;20165;-58
2020/12/29 04:42:01;;;;;;;6.23;5.20;;;;;;;;;;2090613;28;20160;-58
2020/12/29 04:43:01;;;;;;;5.30;5.00;;;;;;;;;;2091041;28;20251;-58
2020/12/29 04:44:01;;;;;;;5.20;4.80;;;;;;;;;;2081861;28;20560;-58
2020/12/29 04:45:02;;;;;;;5.30;4.90;;;;;;;;;;2082164;28;20218;-59
2020/12/29 04:46:04;;;;;;;5.43;5.00;;;;;;;;;;2090947;28;20267;-58
2020/12/29 04:47:06;;;;;;;5.03;4.73;;;;;;;;;;2081667;28;20168;-56
2020/12/29 04:48:06;;;;;;;5.30;4.90;;;;;;;;;;2073820;28;20586;-56
2020/12/29 04:49:06;;;;;;;6.20;4.97;;;;;;;;;;2081585;28;20180;-58
2020/12/29 04:50:07;;;;;;;5.73;5.33;;;;;;;;;;2090685;28;20177;-58
2020/12/29 04:51:08;;;;;;;5.90;5.40;;;;;;;;;;2080523;28;20211;-58
2020/12/29 04:52:09;;;;;;;5.23;4.83;;;;;;;;;;2080913;28;20280;-58
2020/12/29 04:53:13;;;;;;;5.57;5.07;;;;;;;;;;2073961;28;20200;-58
2020/12/29 04:54:14;;;;;;;5.87;5.47;;;;;;;;;;2072432;28;20185;-59
2020/12/29 04:55:15;;;;;;;5.20;4.80;;;;;;;;;;2091148;28;20240;-58
2020/12/29 04:56:16;;;;;;;5.50;5.20;;;;;;;;;;2081913;28;20160;-58
2020/12/29 04:57:16;;;;;;;5.77;5.27;;;;;;;;;;2081896;28;20180;-58
2020/12/29 04:58:16;;;;;;;6.30;5.70;;;;;;;;;;2081770;28;20172;-58
2020/12/29 04:59:17;;;;;;;6.33;5.83;;;;;;;;;;2082138;28;20184;-59
2020/12/29 05:00:18;;;;;;;6.20;5.70;;;;;;;;;;2090432;28;20187;-58
2020/12/29 05:01:19;;;;;;;6.23;5.73;;;;;;;;;;2090400;28;20261;-58
2020/12/29 05:02:20;;;;;;;6.13;5.53;;;;;;;;;;2090671;28;20168;-58
2020/12/29 05:03:20;;;;;;;6.97;5.23;;;;;;;;;;2082175;28;20799;-58
2020/12/29 05:04:21;;;;;;;5.80;5.40;;;;;;;;;;2065594;28;20181;-58
2020/12/29 05:05:22;;;;;;;5.70;5.27;;;;;;;;;;2073751;28;20181;-59
2020/12/29 05:06:22;;;;;;;5.43;4.93;;;;;;;;;;2081856;28;20188;-55
2020/12/29 05:07:23;;;;;;;5.63;5.13;;;;;;;;;;2073552;28;20181;-58
2020/12/29 05:08:23;;;;;;;6.03;5.63;;;;;;;;;;2082081;28;20259;-58
2020/12/29 05:09:24;;;;;;;6.20;5.70;;;;;;;;;;2081944;28;20204;-57
2020/12/29 05:10:24;;;;;;;5.83;5.33;;;;;;;;;;2081934;28;20699;-58
2020/12/29 05:11:25;;;;;;;5.57;5.07;;;;;;;;;;2081821;28;20200;-59
2020/12/29 05:12:25;;;;;;;6.67;6.17;;;;;;;;;;2073975;28;20192;-58
2020/12/29 05:13:25;;;;;;;5.50;5.20;;;;;;;;;;2070146;28;20268;-57
2020/12/29 05:14:29;;;;;;;5.70;5.10;;;;;;;;;;2073678;28;20193;-59
2020/12/29 05:15:29;;;;;;;5.80;5.40;;;;;;;;;;2074031;28;20181;-57
2020/12/29 05:16:29;;;;;;;5.37;5.03;;;;;;;;;;2078263;28;20185;-58
2020/12/29 05:17:30;;;;;;;5.30;4.90;;;;;;;;;;2081580;28;20180;-59
2020/12/29 05:18:30;;;;;;;6.53;5.70;;;;;;;;;;2073895;28;20176;-59
2020/12/29 05:19:32;;;;;;;6.40;5.80;;;;;;;;;;2081599;28;20168;-59
2020/12/29 05:20:38;;;;;;;6.33;5.73;;;;;;;;;;2090618;28;20195;-58
2020/12/29 05:21:38;;;;;;;5.97;5.57;;;;;;;;;;2073570;28;20251;-59
2020/12/29 05:22:39;;;;;;;6.50;5.93;;;;;;;;;;2073937;28;20180;-56
2020/12/29 05:23:39;;;;;;;6.37;5.77;;;;;;;;;;2080594;28;20168;-57
2020/12/29 05:24:44;;;;;;;6.23;5.73;;;;;;;;;;2081902;28;20598;-59
2020/12/29 05:25:45;;;;;;;6.60;6.00;;;;;;;;;;2080301;28;20175;-55
2020/12/29 05:26:48;;;;;;;7.63;5.70;;;;;;;;;;2072907;28;20557;-59
2020/12/29 05:27:50;;;;;;;6.73;6.13;;;;;;;;;;2081601;28;20183;-55
2020/12/29 05:28:50;;;;;;;6.43;5.93;;;;;;;;;;2091029;28;20499;-58
2020/12/29 05:29:50;;;;;;;6.27;5.87;;;;;;;;;;2090479;28;20164;-58
2020/12/29 05:30:54;;;;;;;6.67;6.10;;;;;;;;;;2090581;28;20175;-58
2020/12/29 05:31:55;;;;;;;6.73;6.23;;;;;;;;;;2088233;28;20180;-58
2020/12/29 05:32:55;;;;;;;6.27;5.77;;;;;;;;;;2081641;28;20175;-55
2020/12/29 05:33:55;;;;;;;6.67;6.17;;;;;;;;;;2081460;28;20173;-59
2020/12/29 05:34:56;;;;;;;7.00;6.40;;;;;;;;;;2090943;28;20216;-59
2020/12/29 05:36:00;;;;;;;7.07;6.50;;;;;;;;;;2090704;28;20229;-58
2020/12/29 05:37:00;;;;;;;6.70;6.20;;;;;;;;;;2073526;28;20265;-53
2020/12/29 05:38:01;;;;;;;6.13;5.73;;;;;;;;;;2073533;28;20185;-59
2020/12/29 05:39:04;;;;;;;6.80;6.30;;;;;;;;;;2089340;28;20202;-58
2020/12/29 05:40:21;;;;;;;7.17;6.60;;;;;;;;;;2091032;28;20164;-58
2020/12/29 05:41:22;;;;;;;7.67;6.33;;;;;;;;;;2079273;28;20228;-58
2020/12/29 05:42:25;;;;;;;7.37;6.77;;;;;;;;;;2082283;28;20409;-57
2020/12/29 05:43:30;;;;;;;7.47;6.87;;;;;;;;;;2090248;28;20187;-55
2020/12/29 05:44:31;;;;;;;7.20;6.50;;;;;;;;;;2090676;28;20443;-58
2020/12/29 05:45:32;;;;;;;7.97;7.17;;;;;;;;;;2081977;28;20218;-56
2020/12/29 05:46:33;;;;;;;7.73;6.93;;;;;;;;;;2081782;28;20271;-52
2020/12/29 05:47:33;;;;;;;7.63;6.83;;;;;;;;;;2081299;28;20425;-57
2020/12/29 05:48:33;;;;;;;7.70;6.73;;;;;;;;;;2082114;28;20172;-59
2020/12/29 05:49:34;;;;;;;7.80;7.10;;;;;;;;;;2090221;28;20182;-57
2020/12/29 05:50:34;;;;;;;7.97;7.27;;;;;;;;;;2082275;28;20192;-56
2020/12/29 05:51:34;;;;;;;7.87;7.20;;;;;;;;;;2082111;28;20173;-57
2020/12/29 05:52:35;;;;;;;7.73;7.00;;;;;;;;;;2091079;28;20175;-58
2020/12/29 05:53:35;;;;;;;8.30;7.53;;;;;;;;;;2090452;28;20282;-57
2020/12/29 05:54:36;;;;;;;8.23;7.20;;;;;;;;;;2081870;28;20215;-56
2020/12/29 05:55:36;;;;;;;7.53;6.90;;;;;;;;;;2081685;28;20168;-56
2020/12/29 05:56:36;;;;;;;7.73;7.03;;;;;;;;;;2081683;28;20418;-58
2020/12/29 05:57:37;;;;;;;8.50;7.77;;;;;;;;;;2081644;28;20207;-59
2020/12/29 05:58:37;;;;;;;7.83;7.07;;;;;;;;;;2090928;28;20172;-58
2020/12/29 05:59:38;;;;;;;8.53;7.73;;;;;;;;;;2081858;28;20733;-59
2020/12/29 06:00:39;;;;;;;8.20;7.50;;;;;;;;;;2081675;28;20176;-59
2020/12/29 06:01:43;;;;;;;9.53;8.60;;;;;;;;;;2082179;28;20188;-54
2020/12/29 06:02:49;;;;;;;9.17;8.33;;;;;;;;;;2082643;28;20259;-59
2020/12/29 06:03:50;;;;;;;9.13;8.33;;;;;;;;;;2082212;28;20190;-59
2020/12/29 06:04:50;;;;;;;9.10;8.10;;;;;;;;;;2082504;28;20422;-58